Flood From: 17-02-2018 16:00 Until: 18-02-2018 16:00 warning for: Flood Level: Yellow info button

Although rather usual in this region, locally or potentially dangerous phenomena are expected. (such as local winds, summer thunderstorms, rising streams or high waves) Be aware and pay attention to the latest weather updates, especially if you carry out activities exposed to weather or close to a stream or shoreline. 


Meteo18 Weather Cam more information Meteo18 Weather Cam


Thunder radar more information blitzortung!


Rain radar more information rain snow radar


Visit our other weather sites:

Template documentation
and downloads

And another site



Weather Underground History page Text

Daily Summary for December 27, 2017 Units:  Both    English   Metric
« Previous Day
Next Day »
Daily Weekly Monthly Yearly Custom
  High: Low: Average:
Temperature: TemperatureC °F /  -17.8 °C 2.1 °F /  -16.6 °C 4.3 °F /  -15.4 °C
Dew Point: DewpointC °F /  -17.8 °C 0.0 °F /  -17.8 °C 2.4 °F /  -16.4 °C
Humidity: Humidity % 76 % 87 %
Wind Speed: WindSpeedKMH mph /  0 km/h - 15.2 mph /  24.5 km/h
Wind Gust: WindSpeedGustKMH mph /  0 km/h - -
Wind:- - WSW
Pressure: PressurehPa in /  0 hPa 987.0 in /  33419.8 hPa -
Precipitation: 4.1 in /  104.14 mm    
Historical Graphs
 
 
Tabular Data for December 27, 2017
Time Temperature Dew Point Pressure Wind Wind Speed Wind Gust Humidity Rainfall Rate (Hourly)
TemperatureC °F /  -17.8 °C DewpointC °F /  -17.8 °C PressurehPa in /  0 hPa Calm     Humidity % HourlyPrecipMM in /  0 mm
00:12 6.0 °F /  -14.4 °C 3.3 °F /  -15.9 °C 993.5 in /  33639.9 hPa SSE 4.8 mph /  7.7 km/h 20.9 mph /  33.6 km/h 83 % 0.5 in /  12.7 mm
00:17 5.9 °F /  -14.5 °C 3.4 °F /  -15.9 °C 993.5 in /  33639.9 hPa South 9.7 mph /  15.6 km/h 20.9 mph /  33.6 km/h 84 % 0.5 in /  12.7 mm
00:22 6.0 °F /  -14.4 °C 3.5 °F /  -15.8 °C 993.1 in /  33626.4 hPa SSW 8.0 mph /  12.9 km/h 24.1 mph /  38.8 km/h 84 % 0.5 in /  12.7 mm
00:27 6.0 °F /  -14.4 °C 3.3 °F /  -15.9 °C 993.1 in /  33626.4 hPa South 17.7 mph /  28.5 km/h 24.1 mph /  38.8 km/h 83 % 0.5 in /  12.7 mm
00:32 6.1 °F /  -14.4 °C 3.4 °F /  -15.9 °C 992.8 in /  33616.2 hPa South 8.0 mph /  12.9 km/h 24.1 mph /  38.8 km/h 83 % 0.5 in /  12.7 mm
00:37 6.2 °F /  -14.3 °C 3.4 °F /  -15.9 °C 992.4 in /  33602.7 hPa South 14.5 mph /  23.3 km/h 22.5 mph /  36.2 km/h 82 % 0.5 in /  12.7 mm
00:47 6.3 °F /  -14.3 °C 3.5 °F /  -15.8 °C 992.4 in /  33602.7 hPa SW 20.9 mph /  33.6 km/h 22.5 mph /  36.2 km/h 82 % 0.5 in /  12.7 mm
00:52 6.4 °F /  -14.2 °C 3.4 °F /  -15.9 °C 992.1 in /  33592.5 hPa South 9.7 mph /  15.6 km/h 27.4 mph /  44.1 km/h 81 % 0.5 in /  12.7 mm
01:02 6.1 °F /  -14.4 °C 3.6 °F /  -15.8 °C 991.8 in /  33582.3 hPa SSW 12.9 mph /  20.8 km/h 27.4 mph /  44.1 km/h 84 % 0.5 in /  12.7 mm
01:12 5.8 °F /  -14.6 °C 3.6 °F /  -15.8 °C 991.8 in /  33582.3 hPa SSW 14.5 mph /  23.3 km/h 27.4 mph /  44.1 km/h 86 % 0.8 in /  20.32 mm
01:17 5.8 °F /  -14.6 °C 3.6 °F /  -15.8 °C 991.4 in /  33568.8 hPa South 11.3 mph /  18.2 km/h 20.9 mph /  33.6 km/h 86 % 0.5 in /  12.7 mm
01:22 5.8 °F /  -14.6 °C 3.8 °F /  -15.7 °C 991.4 in /  33568.8 hPa South 9.7 mph /  15.6 km/h 20.9 mph /  33.6 km/h 87 % 0.5 in /  12.7 mm
01:27 5.8 °F /  -14.6 °C 3.8 °F /  -15.7 °C 991.1 in /  33558.6 hPa South 11.3 mph /  18.2 km/h 22.5 mph /  36.2 km/h 87 % 0.5 in /  12.7 mm
01:32 5.8 °F /  -14.6 °C 3.8 °F /  -15.7 °C 991.1 in /  33558.6 hPa SSW 11.3 mph /  18.2 km/h 22.5 mph /  36.2 km/h 87 % 0.5 in /  12.7 mm
01:37 5.7 °F /  -14.6 °C 3.7 °F /  -15.7 °C 991.1 in /  33558.6 hPa South 12.9 mph /  20.8 km/h 24.1 mph /  38.8 km/h 87 % 0.5 in /  12.7 mm
01:47 5.8 °F /  -14.6 °C 3.8 °F /  -15.7 °C 990.7 in /  33545.1 hPa SSW 16.1 mph /  25.9 km/h 22.5 mph /  36.2 km/h 87 % 0.8 in /  20.32 mm
01:52 5.8 °F /  -14.6 °C 3.8 °F /  -15.7 °C 990.7 in /  33545.1 hPa South 12.9 mph /  20.8 km/h 22.5 mph /  36.2 km/h 87 % 0.8 in /  20.32 mm
01:57 5.9 °F /  -14.5 °C 3.7 °F /  -15.7 °C 990.4 in /  33534.9 hPa SSW 12.9 mph /  20.8 km/h 24.1 mph /  38.8 km/h 86 % 0.5 in /  12.7 mm
02:02 6.0 °F /  -14.4 °C 3.7 °F /  -15.7 °C 990.4 in /  33534.9 hPa South 19.3 mph /  31.1 km/h 24.1 mph /  38.8 km/h 85 % 0.5 in /  12.7 mm
02:07 6.0 °F /  -14.4 °C 3.8 °F /  -15.7 °C 990.4 in /  33534.9 hPa SSE 11.3 mph /  18.2 km/h 27.4 mph /  44.1 km/h 86 % 0.5 in /  12.7 mm
02:12 6.1 °F /  -14.4 °C 3.8 °F /  -15.7 °C 990.1 in /  33524.8 hPa South 8.0 mph /  12.9 km/h 27.4 mph /  44.1 km/h 85 % 0.5 in /  12.7 mm
02:17 6.0 °F /  -14.4 °C 3.8 °F /  -15.7 °C 990.1 in /  33524.8 hPa SSW 9.7 mph /  15.6 km/h 30.6 mph /  49.2 km/h 86 % 0.5 in /  12.7 mm
02:22 6.0 °F /  -14.4 °C 3.8 °F /  -15.7 °C 990.1 in /  33524.8 hPa SSW 9.7 mph /  15.6 km/h 30.6 mph /  49.2 km/h 86 % 0.5 in /  12.7 mm
02:27 5.9 °F /  -14.5 °C 3.7 °F /  -15.7 °C 989.7 in /  33511.2 hPa SSW 4.8 mph /  7.7 km/h 25.7 mph /  41.4 km/h 86 % 0.5 in /  12.7 mm
02:32 5.9 °F /  -14.5 °C 3.7 °F /  -15.7 °C 989.7 in /  33511.2 hPa SSW 9.7 mph /  15.6 km/h 25.7 mph /  41.4 km/h 86 % 0.5 in /  12.7 mm
02:42 6.1 °F /  -14.4 °C 3.8 °F /  -15.7 °C 989.7 in /  33511.2 hPa South 12.9 mph /  20.8 km/h 24.1 mph /  38.8 km/h 85 % 0.5 in /  12.7 mm
02:47 6.2 °F /  -14.3 °C 3.7 °F /  -15.7 °C 989.4 in /  33501.1 hPa South 14.5 mph /  23.3 km/h 29.0 mph /  46.7 km/h 84 % 0.5 in /  12.7 mm
02:57 6.3 °F /  -14.3 °C 3.8 °F /  -15.7 °C 989.4 in /  33501.1 hPa SSW 12.9 mph /  20.8 km/h 24.1 mph /  38.8 km/h 84 % 0.5 in /  12.7 mm
03:02 6.3 °F /  -14.3 °C 3.8 °F /  -15.7 °C 989.1 in /  33490.9 hPa SW 14.5 mph /  23.3 km/h 24.1 mph /  38.8 km/h 84 % 0.5 in /  12.7 mm
03:07 6.4 °F /  -14.2 °C 3.7 °F /  -15.7 °C 989.1 in /  33490.9 hPa South 16.1 mph /  25.9 km/h 25.7 mph /  41.4 km/h 83 % 0.3 in /  7.62 mm
03:12 6.4 °F /  -14.2 °C 3.7 °F /  -15.7 °C 989.1 in /  33490.9 hPa SW 17.7 mph /  28.5 km/h 25.7 mph /  41.4 km/h 83 % 0.3 in /  7.62 mm
03:17 6.4 °F /  -14.2 °C 3.7 °F /  -15.7 °C 989.1 in /  33490.9 hPa SSW 16.1 mph /  25.9 km/h 30.6 mph /  49.2 km/h 83 % 0.3 in /  7.62 mm
03:22 6.4 °F /  -14.2 °C 3.6 °F /  -15.8 °C 989.1 in /  33490.9 hPa SW 20.9 mph /  33.6 km/h 30.6 mph /  49.2 km/h 82 % 0.3 in /  7.62 mm
03:27 6.5 °F /  -14.2 °C 3.6 °F /  -15.8 °C 989.4 in /  33501.1 hPa SSW 14.5 mph /  23.3 km/h 27.4 mph /  44.1 km/h 82 % 0.0 in /  0 mm
03:32 6.6 °F /  -14.1 °C 3.7 °F /  -15.7 °C 989.1 in /  33490.9 hPa SSW 22.5 mph /  36.2 km/h 27.4 mph /  44.1 km/h 82 % 0.0 in /  0 mm
03:37 6.5 °F /  -14.2 °C 3.6 °F /  -15.8 °C 989.1 in /  33490.9 hPa South 17.7 mph /  28.5 km/h 32.2 mph /  51.8 km/h 82 % 0.0 in /  0 mm
03:42 6.3 °F /  -14.3 °C 3.8 °F /  -15.7 °C 989.1 in /  33490.9 hPa SSW 22.5 mph /  36.2 km/h 32.2 mph /  51.8 km/h 84 % 0.0 in /  0 mm
03:52 6.1 °F /  -14.4 °C 3.8 °F /  -15.7 °C 989.1 in /  33490.9 hPa SSW 20.9 mph /  33.6 km/h 35.4 mph /  57 km/h 85 % 0.3 in /  7.62 mm
03:57 6.0 °F /  -14.4 °C 4.0 °F /  -15.6 °C 989.1 in /  33490.9 hPa SW 16.1 mph /  25.9 km/h 35.4 mph /  57 km/h 87 % 0.5 in /  12.7 mm
04:02 5.8 °F /  -14.6 °C 4.0 °F /  -15.6 °C 989.1 in /  33490.9 hPa SW 14.5 mph /  23.3 km/h 35.4 mph /  57 km/h 88 % 0.5 in /  12.7 mm
04:12 5.7 °F /  -14.6 °C 4.0 °F /  -15.6 °C 989.1 in /  33490.9 hPa SSW 9.7 mph /  15.6 km/h 30.6 mph /  49.2 km/h 89 % 0.5 in /  12.7 mm
04:17 5.6 °F /  -14.7 °C 4.1 °F /  -15.5 °C 988.7 in /  33477.4 hPa SW 12.9 mph /  20.8 km/h 24.1 mph /  38.8 km/h 90 % 0.5 in /  12.7 mm
04:27 5.5 °F /  -14.7 °C 4.0 °F /  -15.6 °C 988.7 in /  33477.4 hPa SSW 14.5 mph /  23.3 km/h 22.5 mph /  36.2 km/h 90 % 0.8 in /  20.32 mm
04:32 5.6 °F /  -14.7 °C 4.1 °F /  -15.5 °C 988.7 in /  33477.4 hPa SW 19.3 mph /  31.1 km/h 22.5 mph /  36.2 km/h 90 % 0.8 in /  20.32 mm
04:37 5.6 °F /  -14.7 °C 3.9 °F /  -15.6 °C 988.7 in /  33477.4 hPa WSW 9.7 mph /  15.6 km/h 25.7 mph /  41.4 km/h 89 % 0.8 in /  20.32 mm
04:42 5.7 °F /  -14.6 °C 4.0 °F /  -15.6 °C 988.7 in /  33477.4 hPa SW 16.1 mph /  25.9 km/h 25.7 mph /  41.4 km/h 89 % 0.8 in /  20.32 mm
04:47 5.6 °F /  -14.7 °C 3.9 °F /  -15.6 °C 988.4 in /  33467.2 hPa WSW 8.0 mph /  12.9 km/h 25.7 mph /  41.4 km/h 89 % 0.8 in /  20.32 mm
04:52 5.6 °F /  -14.7 °C 3.9 °F /  -15.6 °C 988.4 in /  33467.2 hPa SW 11.3 mph /  18.2 km/h 25.7 mph /  41.4 km/h 89 % 0.8 in /  20.32 mm
05:02 5.6 °F /  -14.7 °C 3.9 °F /  -15.6 °C 988.4 in /  33467.2 hPa SW 8.0 mph /  12.9 km/h 16.1 mph /  25.9 km/h 89 % 0.5 in /  12.7 mm
05:12 5.7 °F /  -14.6 °C 4.0 °F /  -15.6 °C 988.0 in /  33453.7 hPa WSW 12.9 mph /  20.8 km/h 16.1 mph /  25.9 km/h 89 % 0.8 in /  20.32 mm
05:22 5.8 °F /  -14.6 °C 3.8 °F /  -15.7 °C 988.0 in /  33453.7 hPa WSW 8.0 mph /  12.9 km/h 16.1 mph /  25.9 km/h 87 % 0.8 in /  20.32 mm
05:32 5.9 °F /  -14.5 °C 3.7 °F /  -15.7 °C 987.7 in /  33443.5 hPa South 9.7 mph /  15.6 km/h 19.3 mph /  31.1 km/h 86 % 0.5 in /  12.7 mm
05:42 5.9 °F /  -14.5 °C 3.7 °F /  -15.7 °C 987.7 in /  33443.5 hPa SW 12.9 mph /  20.8 km/h 22.5 mph /  36.2 km/h 86 % 0.5 in /  12.7 mm
05:52 6.1 °F /  -14.4 °C 3.9 °F /  -15.6 °C 987.4 in /  33433.4 hPa SW 17.7 mph /  28.5 km/h 22.5 mph /  36.2 km/h 86 % 0.5 in /  12.7 mm
05:57 6.1 °F /  -14.4 °C 3.9 °F /  -15.6 °C 987.4 in /  33433.4 hPa SSW 12.9 mph /  20.8 km/h 30.6 mph /  49.2 km/h 86 % 0.3 in /  7.62 mm
06:02 6.1 °F /  -14.4 °C 3.9 °F /  -15.6 °C 987.4 in /  33433.4 hPa SW 22.5 mph /  36.2 km/h 30.6 mph /  49.2 km/h 86 % 0.3 in /  7.62 mm
06:12 6.2 °F /  -14.3 °C 4.0 °F /  -15.6 °C 987.4 in /  33433.4 hPa SW 27.4 mph /  44.1 km/h 35.4 mph /  57 km/h 86 % 0.0 in /  0 mm
06:17 6.2 °F /  -14.3 °C 4.0 °F /  -15.6 °C 987.4 in /  33433.4 hPa South 19.3 mph /  31.1 km/h 35.4 mph /  57 km/h 86 % 0.0 in /  0 mm
06:22 6.2 °F /  -14.3 °C 4.0 °F /  -15.6 °C 987.4 in /  33433.4 hPa SW 16.1 mph /  25.9 km/h 35.4 mph /  57 km/h 86 % 0.0 in /  0 mm
06:32 6.2 °F /  -14.3 °C 4.0 °F /  -15.6 °C 987.0 in /  33419.8 hPa SSW 12.9 mph /  20.8 km/h 37.0 mph /  59.5 km/h 86 % 0.0 in /  0 mm
06:42 6.2 °F /  -14.3 °C 4.0 °F /  -15.6 °C 987.0 in /  33419.8 hPa South 14.5 mph /  23.3 km/h 37.0 mph /  59.5 km/h 86 % 0.0 in /  0 mm
06:52 6.1 °F /  -14.4 °C 4.1 °F /  -15.5 °C 987.0 in /  33419.8 hPa South 30.6 mph /  49.2 km/h 30.6 mph /  49.2 km/h 87 % 0.0 in /  0 mm
06:57 6.1 °F /  -14.4 °C 4.3 °F /  -15.4 °C 987.0 in /  33419.8 hPa SSW 17.7 mph /  28.5 km/h 30.6 mph /  49.2 km/h 88 % 0.0 in /  0 mm
07:02 6.0 °F /  -14.4 °C 4.2 °F /  -15.4 °C 987.0 in /  33419.8 hPa SW 22.5 mph /  36.2 km/h 40.2 mph /  64.7 km/h 88 % 0.3 in /  7.62 mm
07:12 5.8 °F /  -14.6 °C 4.3 °F /  -15.4 °C 987.0 in /  33419.8 hPa SSW 29.0 mph /  46.7 km/h 40.2 mph /  64.7 km/h 90 % 0.3 in /  7.62 mm
07:17 5.8 °F /  -14.6 °C 4.3 °F /  -15.4 °C 987.0 in /  33419.8 hPa SSW 22.5 mph /  36.2 km/h 40.2 mph /  64.7 km/h 90 % 0.3 in /  7.62 mm
07:22 5.7 °F /  -14.6 °C 4.2 °F /  -15.4 °C 987.4 in /  33433.4 hPa SSW 9.7 mph /  15.6 km/h 35.4 mph /  57 km/h 90 % 0.3 in /  7.62 mm
07:32 5.7 °F /  -14.6 °C 4.2 °F /  -15.4 °C 987.4 in /  33433.4 hPa SW 8.0 mph /  12.9 km/h 35.4 mph /  57 km/h 90 % 0.3 in /  7.62 mm
07:37 5.6 °F /  -14.7 °C 4.1 °F /  -15.5 °C 987.4 in /  33433.4 hPa SW 8.0 mph /  12.9 km/h 25.7 mph /  41.4 km/h 90 % 0.3 in /  7.62 mm
07:42 5.6 °F /  -14.7 °C 4.1 °F /  -15.5 °C 987.4 in /  33433.4 hPa SW 14.5 mph /  23.3 km/h 25.7 mph /  41.4 km/h 90 % 0.3 in /  7.62 mm
07:47 5.5 °F /  -14.7 °C 4.0 °F /  -15.6 °C 987.4 in /  33433.4 hPa SW 6.4 mph /  10.3 km/h 19.3 mph /  31.1 km/h 90 % 0.3 in /  7.62 mm
07:57 5.3 °F /  -14.8 °C 3.8 °F /  -15.7 °C 987.4 in /  33433.4 hPa SW 8.0 mph /  12.9 km/h 19.3 mph /  31.1 km/h 90 % 0.3 in /  7.62 mm
08:07 4.9 °F /  -15.1 °C 3.6 °F /  -15.8 °C 987.4 in /  33433.4 hPa SSW 4.8 mph /  7.7 km/h 12.9 mph /  20.8 km/h 91 % 0.0 in /  0 mm
08:17 4.7 °F /  -15.2 °C 3.4 °F /  -15.9 °C 987.7 in /  33443.5 hPa SSW 1.6 mph /  2.6 km/h 11.3 mph /  18.2 km/h 91 % 0.0 in /  0 mm
08:22 4.6 °F /  -15.2 °C 3.4 °F /  -15.9 °C 987.7 in /  33443.5 hPa SW 3.2 mph /  5.1 km/h 11.3 mph /  18.2 km/h 92 % 0.0 in /  0 mm
08:27 4.6 °F /  -15.2 °C 3.4 °F /  -15.9 °C 987.7 in /  33443.5 hPa SW 1.6 mph /  2.6 km/h 11.3 mph /  18.2 km/h 92 % 0.0 in /  0 mm
08:37 4.4 °F /  -15.3 °C 3.2 °F /  -16 °C 987.7 in /  33443.5 hPa SW 3.2 mph /  5.1 km/h 8.0 mph /  12.9 km/h 92 % 0.0 in /  0 mm
08:47 4.4 °F /  -15.3 °C 3.2 °F /  -16 °C 987.4 in /  33433.4 hPa South 3.2 mph /  5.1 km/h 8.0 mph /  12.9 km/h 92 % 0.0 in /  0 mm
08:52 4.3 °F /  -15.4 °C 3.1 °F /  -16.1 °C 987.4 in /  33433.4 hPa SSW 4.8 mph /  7.7 km/h 6.4 mph /  10.3 km/h 92 % 0.0 in /  0 mm
08:57 4.3 °F /  -15.4 °C 3.3 °F /  -15.9 °C 987.4 in /  33433.4 hPa South 3.2 mph /  5.1 km/h 6.4 mph /  10.3 km/h 93 % 0.0 in /  0 mm
09:07 4.2 °F /  -15.4 °C 3.2 °F /  -16 °C 987.4 in /  33433.4 hPa SSW 4.8 mph /  7.7 km/h 8.0 mph /  12.9 km/h 93 % 0.0 in /  0 mm
09:12 4.3 °F /  -15.4 °C 3.3 °F /  -15.9 °C 987.4 in /  33433.4 hPa SSW 4.8 mph /  7.7 km/h 8.0 mph /  12.9 km/h 93 % 0.0 in /  0 mm
09:22 4.4 °F /  -15.3 °C 3.5 °F /  -15.8 °C 987.4 in /  33433.4 hPa South 4.8 mph /  7.7 km/h 6.4 mph /  10.3 km/h 94 % 0.0 in /  0 mm
09:27 4.4 °F /  -15.3 °C 3.5 °F /  -15.8 °C 987.4 in /  33433.4 hPa SW 3.2 mph /  5.1 km/h 6.4 mph /  10.3 km/h 94 % 0.0 in /  0 mm
09:32 4.5 °F /  -15.3 °C 3.5 °F /  -15.8 °C 987.4 in /  33433.4 hPa SSW 3.2 mph /  5.1 km/h 9.7 mph /  15.6 km/h 93 % 0.0 in /  0 mm
09:42 4.7 °F /  -15.2 °C 3.7 °F /  -15.7 °C 987.4 in /  33433.4 hPa SSW 9.7 mph /  15.6 km/h 9.7 mph /  15.6 km/h 93 % 0.0 in /  0 mm
09:47 4.8 °F /  -15.1 °C 3.6 °F /  -15.8 °C 987.4 in /  33433.4 hPa SSW 11.3 mph /  18.2 km/h 11.3 mph /  18.2 km/h 92 % 0.0 in /  0 mm
09:52 4.8 °F /  -15.1 °C 3.6 °F /  -15.8 °C 987.4 in /  33433.4 hPa SW 14.5 mph /  23.3 km/h 16.1 mph /  25.9 km/h 92 % 0.0 in /  0 mm
10:02 5.0 °F /  -15 °C 3.8 °F /  -15.7 °C 987.4 in /  33433.4 hPa SW 14.5 mph /  23.3 km/h 22.5 mph /  36.2 km/h 92 % 0.0 in /  0 mm
10:07 5.1 °F /  -14.9 °C 3.9 °F /  -15.6 °C 987.4 in /  33433.4 hPa SSW 9.7 mph /  15.6 km/h 22.5 mph /  36.2 km/h 92 % 0.0 in /  0 mm
10:17 5.1 °F /  -14.9 °C 4.1 °F /  -15.5 °C 987.4 in /  33433.4 hPa West 8.0 mph /  12.9 km/h 22.5 mph /  36.2 km/h 93 % 0.0 in /  0 mm
10:22 5.1 °F /  -14.9 °C 4.1 °F /  -15.5 °C 987.4 in /  33433.4 hPa SW 17.7 mph /  28.5 km/h 22.5 mph /  36.2 km/h 93 % 0.0 in /  0 mm
10:32 5.2 °F /  -14.9 °C 4.0 °F /  -15.6 °C 987.4 in /  33433.4 hPa SW 16.1 mph /  25.9 km/h 25.7 mph /  41.4 km/h 92 % 0.0 in /  0 mm
10:42 5.2 °F /  -14.9 °C 4.2 °F /  -15.4 °C 987.7 in /  33443.5 hPa SW 20.9 mph /  33.6 km/h 25.7 mph /  41.4 km/h 93 % 0.0 in /  0 mm
10:52 5.3 °F /  -14.8 °C 4.1 °F /  -15.5 °C 987.7 in /  33443.5 hPa SW 24.1 mph /  38.8 km/h 24.1 mph /  38.8 km/h 92 % 0.0 in /  0 mm
11:02 5.4 °F /  -14.8 °C 4.0 °F /  -15.6 °C 988.0 in /  33453.7 hPa SSW 11.3 mph /  18.2 km/h 29.0 mph /  46.7 km/h 91 % 0.0 in /  0 mm
11:13 5.4 °F /  -14.8 °C 3.7 °F /  -15.7 °C 987.4 in /  33433.4 hPa SSW 22.7 mph /  36.5 km/h 22.7 mph /  36.5 km/h 89 % 0.0 in /  0 mm
11:19 5.4 °F /  -14.8 °C 3.6 °F /  -15.8 °C 987.4 in /  33433.4 hPa WSW 11.1 mph /  17.9 km/h 30.6 mph /  49.2 km/h 88 % 0.3 in /  7.62 mm
11:21 5.4 °F /  -14.8 °C 3.6 °F /  -15.8 °C 987.4 in /  33433.4 hPa WSW 4.7 mph /  7.6 km/h 17.7 mph /  28.5 km/h 88 % 0.3 in /  7.62 mm
11:33 5.3 °F /  -14.8 °C 3.5 °F /  -15.8 °C 987.7 in /  33443.5 hPa WSW 28.8 mph /  46.3 km/h 29.0 mph /  46.7 km/h 88 % 0.0 in /  0 mm
11:39 5.3 °F /  -14.8 °C 3.0 °F /  -16.1 °C 987.4 in /  33433.4 hPa West 22.7 mph /  36.5 km/h 32.2 mph /  51.8 km/h 85 % 0.0 in /  0 mm
11:45 5.3 °F /  -14.8 °C 3.1 °F /  -16.1 °C 987.4 in /  33433.4 hPa WSW 13.0 mph /  20.9 km/h 30.6 mph /  49.2 km/h 86 % 0.0 in /  0 mm
11:51 5.3 °F /  -14.8 °C 3.0 °F /  -16.1 °C 987.4 in /  33433.4 hPa West 11.1 mph /  17.9 km/h 22.5 mph /  36.2 km/h 85 % 0.0 in /  0 mm
11:55 5.3 °F /  -14.8 °C 3.0 °F /  -16.1 °C 987.4 in /  33433.4 hPa West 24.1 mph /  38.8 km/h 27.4 mph /  44.1 km/h 85 % 0.0 in /  0 mm
12:01 5.3 °F /  -14.8 °C 3.0 °F /  -16.1 °C 987.4 in /  33433.4 hPa West 19.5 mph /  31.4 km/h 25.7 mph /  41.4 km/h 85 % 0.0 in /  0 mm
12:07 5.3 °F /  -14.8 °C 3.0 °F /  -16.1 °C 987.4 in /  33433.4 hPa West 17.7 mph /  28.5 km/h 19.3 mph /  31.1 km/h 85 % 0.0 in /  0 mm
12:13 5.2 °F /  -14.9 °C 3.1 °F /  -16.1 °C 987.4 in /  33433.4 hPa WNW 16.3 mph /  26.2 km/h 27.4 mph /  44.1 km/h 86 % 0.0 in /  0 mm
12:19 5.1 °F /  -14.9 °C 2.8 °F /  -16.2 °C 987.4 in /  33433.4 hPa West 22.7 mph /  36.5 km/h 30.6 mph /  49.2 km/h 85 % 0.0 in /  0 mm
12:25 5.1 °F /  -14.9 °C 3.0 °F /  -16.1 °C 987.7 in /  33443.5 hPa WNW 13.0 mph /  20.9 km/h 27.4 mph /  44.1 km/h 86 % 0.0 in /  0 mm
12:31 4.9 °F /  -15.1 °C 2.8 °F /  -16.2 °C 987.7 in /  33443.5 hPa West 33.8 mph /  54.4 km/h 33.8 mph /  54.4 km/h 86 % 0.0 in /  0 mm
12:37 4.8 °F /  -15.1 °C 2.8 °F /  -16.2 °C 987.7 in /  33443.5 hPa West 16.3 mph /  26.2 km/h 35.4 mph /  57 km/h 87 % 0.0 in /  0 mm
12:39 4.7 °F /  -15.2 °C 2.9 °F /  -16.2 °C 988.0 in /  33453.7 hPa WSW 20.9 mph /  33.6 km/h 29.0 mph /  46.7 km/h 88 % 0.0 in /  0 mm
12:45 4.4 °F /  -15.3 °C 2.6 °F /  -16.3 °C 987.7 in /  33443.5 hPa West 37.0 mph /  59.5 km/h 40.2 mph /  64.7 km/h 88 % 0.0 in /  0 mm
12:51 4.2 °F /  -15.4 °C 2.7 °F /  -16.3 °C 988.0 in /  33453.7 hPa WNW 17.7 mph /  28.5 km/h 29.0 mph /  46.7 km/h 90 % 0.0 in /  0 mm
12:57 3.9 °F /  -15.6 °C 2.6 °F /  -16.3 °C 988.0 in /  33453.7 hPa West 13.0 mph /  20.9 km/h 29.0 mph /  46.7 km/h 91 % 0.0 in /  0 mm
13:03 3.8 °F /  -15.7 °C 2.5 °F /  -16.4 °C 988.4 in /  33467.2 hPa WNW 14.3 mph /  23 km/h 30.6 mph /  49.2 km/h 91 % 0.3 in /  7.62 mm
13:09 3.6 °F /  -15.8 °C 2.1 °F /  -16.6 °C 988.4 in /  33467.2 hPa WSW 27.4 mph /  44.1 km/h 32.2 mph /  51.8 km/h 90 % 0.3 in /  7.62 mm
13:15 3.5 °F /  -15.8 °C 2.2 °F /  -16.6 °C 988.7 in /  33477.4 hPa WSW 27.4 mph /  44.1 km/h 29.0 mph /  46.7 km/h 91 % 0.3 in /  7.62 mm
13:21 3.6 °F /  -15.8 °C 2.3 °F /  -16.5 °C 988.7 in /  33477.4 hPa West 27.4 mph /  44.1 km/h 33.8 mph /  54.4 km/h 91 % 0.3 in /  7.62 mm
13:25 3.6 °F /  -15.8 °C 2.3 °F /  -16.5 °C 988.7 in /  33477.4 hPa West 14.3 mph /  23 km/h 33.8 mph /  54.4 km/h 91 % 0.5 in /  12.7 mm
13:31 3.6 °F /  -15.8 °C 2.1 °F /  -16.6 °C 988.7 in /  33477.4 hPa West 16.3 mph /  26.2 km/h 27.4 mph /  44.1 km/h 90 % 0.5 in /  12.7 mm
13:37 3.7 °F /  -15.7 °C 2.2 °F /  -16.6 °C 988.7 in /  33477.4 hPa WNW 19.5 mph /  31.4 km/h 33.8 mph /  54.4 km/h 90 % 0.5 in /  12.7 mm
13:49 3.8 °F /  -15.7 °C 2.2 °F /  -16.6 °C 989.1 in /  33490.9 hPa WNW 13.0 mph /  20.9 km/h 25.7 mph /  41.4 km/h 89 % 0.5 in /  12.7 mm
13:55 3.7 °F /  -15.7 °C 2.2 °F /  -16.6 °C 989.1 in /  33490.9 hPa West 7.9 mph /  12.7 km/h 25.7 mph /  41.4 km/h 90 % 0.5 in /  12.7 mm
14:01 3.8 °F /  -15.7 °C 2.3 °F /  -16.5 °C 989.1 in /  33490.9 hPa West 11.1 mph /  17.9 km/h 27.4 mph /  44.1 km/h 90 % 0.5 in /  12.7 mm
14:09 3.7 °F /  -15.7 °C 2.2 °F /  -16.6 °C 989.4 in /  33501.1 hPa West 17.7 mph /  28.5 km/h 22.5 mph /  36.2 km/h 90 % 0.5 in /  12.7 mm
14:13 3.6 °F /  -15.8 °C 2.1 °F /  -16.6 °C 989.4 in /  33501.1 hPa SW 22.7 mph /  36.5 km/h 25.7 mph /  41.4 km/h 90 % 0.5 in /  12.7 mm
14:19 3.6 °F /  -15.8 °C 2.1 °F /  -16.6 °C 989.7 in /  33511.2 hPa West 14.3 mph /  23 km/h 24.1 mph /  38.8 km/h 90 % 0.5 in /  12.7 mm
14:25 3.5 °F /  -15.8 °C 2.0 °F /  -16.7 °C 989.7 in /  33511.2 hPa West 24.1 mph /  38.8 km/h 32.2 mph /  51.8 km/h 90 % 0.5 in /  12.7 mm
14:31 3.5 °F /  -15.8 °C 2.0 °F /  -16.7 °C 989.7 in /  33511.2 hPa West 11.1 mph /  17.9 km/h 35.4 mph /  57 km/h 90 % 0.5 in /  12.7 mm
14:37 3.6 °F /  -15.8 °C 2.1 °F /  -16.6 °C 990.1 in /  33524.8 hPa West 9.7 mph /  15.6 km/h 29.0 mph /  46.7 km/h 90 % 0.8 in /  20.32 mm
14:43 3.7 °F /  -15.7 °C 2.1 °F /  -16.6 °C 990.1 in /  33524.8 hPa West 37.0 mph /  59.5 km/h 38.6 mph /  62.1 km/h 89 % 0.8 in /  20.32 mm
14:49 3.8 °F /  -15.7 °C 2.0 °F /  -16.7 °C 990.1 in /  33524.8 hPa WSW 14.3 mph /  23 km/h 32.2 mph /  51.8 km/h 88 % 0.5 in /  12.7 mm
14:55 3.8 °F /  -15.7 °C 2.2 °F /  -16.6 °C 990.1 in /  33524.8 hPa West 24.1 mph /  38.8 km/h 41.8 mph /  67.3 km/h 89 % 0.5 in /  12.7 mm
15:01 3.8 °F /  -15.7 °C 2.0 °F /  -16.7 °C 990.4 in /  33534.9 hPa West 17.7 mph /  28.5 km/h 32.2 mph /  51.8 km/h 88 % 0.5 in /  12.7 mm
15:07 3.8 °F /  -15.7 °C 2.0 °F /  -16.7 °C 990.7 in /  33545.1 hPa WNW 16.3 mph /  26.2 km/h 30.6 mph /  49.2 km/h 88 % 0.5 in /  12.7 mm
15:13 3.9 °F /  -15.6 °C 1.9 °F /  -16.7 °C 990.7 in /  33545.1 hPa WNW 22.7 mph /  36.5 km/h 40.2 mph /  64.7 km/h 87 % 0.5 in /  12.7 mm
15:17 3.9 °F /  -15.6 °C 1.9 °F /  -16.7 °C 991.1 in /  33558.6 hPa WNW 13.0 mph /  20.9 km/h 30.6 mph /  49.2 km/h 87 % 0.5 in /  12.7 mm
15:23 3.9 °F /  -15.6 °C 1.8 °F /  -16.8 °C 991.1 in /  33558.6 hPa WNW 14.3 mph /  23 km/h 30.6 mph /  49.2 km/h 86 % 0.5 in /  12.7 mm
15:31 3.9 °F /  -15.6 °C 1.8 °F /  -16.8 °C 991.4 in /  33568.8 hPa WNW 25.9 mph /  41.7 km/h 29.0 mph /  46.7 km/h 86 % 0.5 in /  12.7 mm
15:37 3.9 °F /  -15.6 °C 1.6 °F /  -16.9 °C 991.4 in /  33568.8 hPa West 11.1 mph /  17.9 km/h 27.4 mph /  44.1 km/h 85 % 0.3 in /  7.62 mm
15:41 3.9 °F /  -15.6 °C 1.8 °F /  -16.8 °C 991.4 in /  33568.8 hPa West 17.7 mph /  28.5 km/h 27.4 mph /  44.1 km/h 86 % 0.3 in /  7.62 mm
15:47 4.0 °F /  -15.6 °C 1.7 °F /  -16.8 °C 991.4 in /  33568.8 hPa WNW 20.9 mph /  33.6 km/h 25.7 mph /  41.4 km/h 85 % 0.5 in /  12.7 mm
15:53 3.9 °F /  -15.6 °C 1.8 °F /  -16.8 °C 991.8 in /  33582.3 hPa West 11.1 mph /  17.9 km/h 17.7 mph /  28.5 km/h 86 % 0.5 in /  12.7 mm
15:59 3.9 °F /  -15.6 °C 1.9 °F /  -16.7 °C 992.1 in /  33592.5 hPa WNW 16.3 mph /  26.2 km/h 25.7 mph /  41.4 km/h 87 % 0.5 in /  12.7 mm
16:05 3.8 °F /  -15.7 °C 1.7 °F /  -16.8 °C 992.1 in /  33592.5 hPa West 41.7 mph /  67.1 km/h 49.9 mph /  80.3 km/h 86 % 0.5 in /  12.7 mm
16:11 3.8 °F /  -15.7 °C 1.7 °F /  -16.8 °C 992.4 in /  33602.7 hPa West 24.1 mph /  38.8 km/h 37.0 mph /  59.5 km/h 86 % 0.8 in /  20.32 mm
16:17 3.7 °F /  -15.7 °C 1.7 °F /  -16.8 °C 992.4 in /  33602.7 hPa WNW 13.0 mph /  20.9 km/h 27.4 mph /  44.1 km/h 87 % 0.8 in /  20.32 mm
16:23 3.6 °F /  -15.8 °C 1.6 °F /  -16.9 °C 992.4 in /  33602.7 hPa WSW 13.0 mph /  20.9 km/h 25.7 mph /  41.4 km/h 87 % 0.8 in /  20.32 mm
16:29 3.5 °F /  -15.8 °C 1.7 °F /  -16.8 °C 992.8 in /  33616.2 hPa WNW 27.4 mph /  44.1 km/h 32.2 mph /  51.8 km/h 88 % 1.0 in /  25.4 mm
16:35 3.4 °F /  -15.9 °C 1.6 °F /  -16.9 °C 992.8 in /  33616.2 hPa WNW 27.4 mph /  44.1 km/h 30.6 mph /  49.2 km/h 88 % 1.0 in /  25.4 mm
16:41 3.4 °F /  -15.9 °C 1.4 °F /  -17 °C 992.8 in /  33616.2 hPa NW 27.4 mph /  44.1 km/h 30.6 mph /  49.2 km/h 87 % 1.0 in /  25.4 mm
16:47 3.3 °F /  -15.9 °C 1.5 °F /  -16.9 °C 992.8 in /  33616.2 hPa WNW 24.1 mph /  38.8 km/h 35.4 mph /  57 km/h 88 % 1.0 in /  25.4 mm
16:53 3.4 °F /  -15.9 °C 1.4 °F /  -17 °C 992.8 in /  33616.2 hPa West 27.4 mph /  44.1 km/h 38.6 mph /  62.1 km/h 87 % 1.0 in /  25.4 mm
16:59 3.4 °F /  -15.9 °C 1.4 °F /  -17 °C 993.1 in /  33626.4 hPa WNW 25.9 mph /  41.7 km/h 37.0 mph /  59.5 km/h 87 % 1.3 in /  33.02 mm
17:05 3.4 °F /  -15.9 °C 1.3 °F /  -17.1 °C 993.1 in /  33626.4 hPa West 19.5 mph /  31.4 km/h 24.1 mph /  38.8 km/h 86 % 1.0 in /  25.4 mm
17:11 3.4 °F /  -15.9 °C 1.1 °F /  -17.2 °C 993.1 in /  33626.4 hPa West 11.1 mph /  17.9 km/h 27.4 mph /  44.1 km/h 85 % 0.8 in /  20.32 mm
17:17 3.5 °F /  -15.8 °C 1.4 °F /  -17 °C 993.1 in /  33626.4 hPa West 13.0 mph /  20.9 km/h 20.9 mph /  33.6 km/h 86 % 0.8 in /  20.32 mm
17:23 3.6 °F /  -15.8 °C 1.3 °F /  -17.1 °C 993.5 in /  33639.9 hPa West 19.5 mph /  31.4 km/h 33.8 mph /  54.4 km/h 85 % 0.8 in /  20.32 mm
17:27 3.6 °F /  -15.8 °C 1.3 °F /  -17.1 °C 993.5 in /  33639.9 hPa SW 17.7 mph /  28.5 km/h 35.4 mph /  57 km/h 85 % 0.5 in /  12.7 mm
17:33 3.7 °F /  -15.7 °C 0.9 °F /  -17.3 °C 993.5 in /  33639.9 hPa NW 17.7 mph /  28.5 km/h 37.0 mph /  59.5 km/h 82 % 0.5 in /  12.7 mm
17:39 3.9 °F /  -15.6 °C 0.8 °F /  -17.3 °C 993.5 in /  33639.9 hPa WNW 25.9 mph /  41.7 km/h 37.0 mph /  59.5 km/h 80 % 0.5 in /  12.7 mm
17:45 3.8 °F /  -15.7 °C 0.7 °F /  -17.4 °C 993.8 in /  33650.1 hPa West 16.3 mph /  26.2 km/h 40.2 mph /  64.7 km/h 80 % 0.5 in /  12.7 mm
17:51 3.9 °F /  -15.6 °C 0.8 °F /  -17.3 °C 993.8 in /  33650.1 hPa NW 19.5 mph /  31.4 km/h 38.6 mph /  62.1 km/h 80 % 0.5 in /  12.7 mm
17:57 3.9 °F /  -15.6 °C 0.6 °F /  -17.4 °C 993.8 in /  33650.1 hPa West 22.7 mph /  36.5 km/h 35.4 mph /  57 km/h 79 % 0.3 in /  7.62 mm
18:03 4.0 °F /  -15.6 °C 0.5 °F /  -17.5 °C 994.1 in /  33660.2 hPa WNW 20.9 mph /  33.6 km/h 35.4 mph /  57 km/h 78 % 0.3 in /  7.62 mm
18:09 4.1 °F /  -15.5 °C 0.4 °F /  -17.6 °C 994.1 in /  33660.2 hPa WNW 24.1 mph /  38.8 km/h 29.0 mph /  46.7 km/h 77 % 0.3 in /  7.62 mm
18:15 4.2 °F /  -15.4 °C 0.3 °F /  -17.6 °C 994.5 in /  33673.8 hPa WNW 37.0 mph /  59.5 km/h 41.8 mph /  67.3 km/h 76 % 0.0 in /  0 mm
18:27 3.9 °F /  -15.6 °C 0.6 °F /  -17.4 °C 994.8 in /  33683.9 hPa NW 14.3 mph /  23 km/h 40.2 mph /  64.7 km/h 79 % 0.0 in /  0 mm
18:41 3.3 °F /  -15.9 °C 0.9 °F /  -17.3 °C 995.5 in /  33707.6 hPa West 17.7 mph /  28.5 km/h 22.5 mph /  36.2 km/h 84 % 0.3 in /  7.62 mm
18:47 3.3 °F /  -15.9 °C 0.7 °F /  -17.4 °C 995.5 in /  33707.6 hPa NW 16.3 mph /  26.2 km/h 25.7 mph /  41.4 km/h 83 % 0.3 in /  7.62 mm
18:54 3.2 °F /  -16 °C 0.8 °F /  -17.3 °C 995.8 in /  33717.8 hPa NW 4.7 mph /  7.6 km/h 30.6 mph /  49.2 km/h 84 % 0.3 in /  7.62 mm
19:02 2.9 °F /  -16.2 °C 0.8 °F /  -17.3 °C 995.8 in /  33717.8 hPa NW 4.7 mph /  7.6 km/h 22.5 mph /  36.2 km/h 86 % 0.3 in /  7.62 mm
19:04 2.9 °F /  -16.2 °C 0.8 °F /  -17.3 °C 995.8 in /  33717.8 hPa WNW 20.9 mph /  33.6 km/h 30.6 mph /  49.2 km/h 86 % 0.3 in /  7.62 mm
19:10 2.7 °F /  -16.3 °C 0.9 °F /  -17.3 °C 996.2 in /  33731.3 hPa WNW 17.7 mph /  28.5 km/h 27.4 mph /  44.1 km/h 88 % 0.3 in /  7.62 mm
19:16 2.5 °F /  -16.4 °C 0.9 °F /  -17.3 °C 996.2 in /  33731.3 hPa WNW 4.7 mph /  7.6 km/h 19.3 mph /  31.1 km/h 89 % 0.3 in /  7.62 mm
19:22 2.5 °F /  -16.4 °C 0.9 °F /  -17.3 °C 996.2 in /  33731.3 hPa West 17.7 mph /  28.5 km/h 20.9 mph /  33.6 km/h 89 % 0.5 in /  12.7 mm
19:28 2.5 °F /  -16.4 °C 0.9 °F /  -17.3 °C 996.5 in /  33741.5 hPa West 13.0 mph /  20.9 km/h 24.1 mph /  38.8 km/h 89 % 0.5 in /  12.7 mm
19:34 2.7 °F /  -16.3 °C 0.9 °F /  -17.3 °C 996.5 in /  33741.5 hPa NW 7.9 mph /  12.7 km/h 22.5 mph /  36.2 km/h 88 % 0.5 in /  12.7 mm
19:40 2.8 °F /  -16.2 °C 0.9 °F /  -17.3 °C 996.8 in /  33751.6 hPa WSW 7.9 mph /  12.7 km/h 20.9 mph /  33.6 km/h 87 % 0.5 in /  12.7 mm
19:46 2.9 °F /  -16.2 °C 0.8 °F /  -17.3 °C 996.8 in /  33751.6 hPa WNW 20.9 mph /  33.6 km/h 32.2 mph /  51.8 km/h 86 % 0.5 in /  12.7 mm
19:50 2.9 °F /  -16.2 °C 1.0 °F /  -17.2 °C 997.2 in /  33765.2 hPa NW 20.9 mph /  33.6 km/h 33.8 mph /  54.4 km/h 87 % 0.5 in /  12.7 mm
19:56 2.9 °F /  -16.2 °C 1.0 °F /  -17.2 °C 997.2 in /  33765.2 hPa WNW 32.0 mph /  51.5 km/h 33.8 mph /  54.4 km/h 87 % 0.5 in /  12.7 mm
20:02 2.9 °F /  -16.2 °C 1.0 °F /  -17.2 °C 997.5 in /  33775.4 hPa WSW 19.5 mph /  31.4 km/h 40.2 mph /  64.7 km/h 87 % 0.5 in /  12.7 mm
20:06 2.7 °F /  -16.3 °C 0.9 °F /  -17.3 °C 997.5 in /  33775.4 hPa WNW 30.6 mph /  49.2 km/h 37.0 mph /  59.5 km/h 88 % 0.5 in /  12.7 mm
20:12 2.5 °F /  -16.4 °C 0.9 °F /  -17.3 °C 997.5 in /  33775.4 hPa WNW 4.7 mph /  7.6 km/h 32.2 mph /  51.8 km/h 89 % 0.5 in /  12.7 mm
20:18 2.4 °F /  -16.4 °C 0.9 °F /  -17.3 °C 997.9 in /  33788.9 hPa WNW 3.2 mph /  5.1 km/h 19.3 mph /  31.1 km/h 90 % 0.0 in /  0 mm
20:24 2.4 °F /  -16.4 °C 0.8 °F /  -17.3 °C 997.9 in /  33788.9 hPa West 19.5 mph /  31.4 km/h 24.1 mph /  38.8 km/h 89 % 0.0 in /  0 mm
20:30 2.4 °F /  -16.4 °C 0.9 °F /  -17.3 °C 997.9 in /  33788.9 hPa West 16.3 mph /  26.2 km/h 22.5 mph /  36.2 km/h 90 % 0.0 in /  0 mm
20:36 2.4 °F /  -16.4 °C 0.9 °F /  -17.3 °C 997.9 in /  33788.9 hPa West 7.9 mph /  12.7 km/h 24.1 mph /  38.8 km/h 90 % 0.0 in /  0 mm
20:42 2.5 °F /  -16.4 °C 0.9 °F /  -17.3 °C 998.2 in /  33799.1 hPa West 19.5 mph /  31.4 km/h 33.8 mph /  54.4 km/h 89 % 0.0 in /  0 mm
20:48 2.5 °F /  -16.4 °C 1.0 °F /  -17.2 °C 998.2 in /  33799.1 hPa West 4.7 mph /  7.6 km/h 20.9 mph /  33.6 km/h 90 % 0.0 in /  0 mm
20:54 2.6 °F /  -16.3 °C 1.1 °F /  -17.2 °C 998.5 in /  33809.2 hPa West 14.3 mph /  23 km/h 24.1 mph /  38.8 km/h 90 % 0.0 in /  0 mm
21:00 2.6 °F /  -16.3 °C 1.1 °F /  -17.2 °C 998.5 in /  33809.2 hPa WNW 14.3 mph /  23 km/h 14.5 mph /  23.3 km/h 90 % 0.0 in /  0 mm
21:06 2.5 °F /  -16.4 °C 1.2 °F /  -17.1 °C 998.9 in /  33822.8 hPa NW 20.9 mph /  33.6 km/h 25.7 mph /  41.4 km/h 91 % 0.0 in /  0 mm
21:12 2.6 °F /  -16.3 °C 1.3 °F /  -17.1 °C 998.9 in /  33822.8 hPa NW 17.7 mph /  28.5 km/h 24.1 mph /  38.8 km/h 91 % 0.0 in /  0 mm
21:14 2.6 °F /  -16.3 °C 1.3 °F /  -17.1 °C 998.9 in /  33822.8 hPa NW 16.3 mph /  26.2 km/h 25.7 mph /  41.4 km/h 91 % 0.0 in /  0 mm
21:20 2.6 °F /  -16.3 °C 1.1 °F /  -17.2 °C 998.9 in /  33822.8 hPa NW 6.4 mph /  10.3 km/h 20.9 mph /  33.6 km/h 90 % 0.3 in /  7.62 mm
21:26 2.5 °F /  -16.4 °C 0.9 °F /  -17.3 °C 998.9 in /  33822.8 hPa WNW 14.3 mph /  23 km/h 22.5 mph /  36.2 km/h 89 % 0.3 in /  7.62 mm
21:32 2.5 °F /  -16.4 °C 0.7 °F /  -17.4 °C 998.9 in /  33822.8 hPa WNW 16.3 mph /  26.2 km/h 20.9 mph /  33.6 km/h 88 % 0.3 in /  7.62 mm
21:38 2.5 °F /  -16.4 °C 0.7 °F /  -17.4 °C 999.2 in /  33832.9 hPa WNW 3.2 mph /  5.1 km/h 20.9 mph /  33.6 km/h 88 % 0.3 in /  7.62 mm
21:44 2.5 °F /  -16.4 °C 0.7 °F /  -17.4 °C 999.2 in /  33832.9 hPa WNW 9.7 mph /  15.6 km/h 27.4 mph /  44.1 km/h 88 % 0.3 in /  7.62 mm
21:50 2.4 °F /  -16.4 °C 0.6 °F /  -17.4 °C 999.2 in /  33832.9 hPa WNW 16.3 mph /  26.2 km/h 20.9 mph /  33.6 km/h 88 % 0.3 in /  7.62 mm
21:58 2.4 °F /  -16.4 °C 0.6 °F /  -17.4 °C 999.2 in /  33832.9 hPa NNW 11.1 mph /  17.9 km/h 20.9 mph /  33.6 km/h 88 % 0.3 in /  7.62 mm
22:04 2.4 °F /  -16.4 °C 0.5 °F /  -17.5 °C 999.5 in /  33843.1 hPa NW 11.1 mph /  17.9 km/h 27.4 mph /  44.1 km/h 87 % 0.3 in /  7.62 mm
22:10 2.3 °F /  -16.5 °C 0.4 °F /  -17.6 °C 999.5 in /  33843.1 hPa WNW 11.1 mph /  17.9 km/h 24.1 mph /  38.8 km/h 87 % 0.3 in /  7.62 mm
22:17 2.3 °F /  -16.5 °C 0.4 °F /  -17.6 °C 999.9 in /  33856.6 hPa NNW 13.0 mph /  20.9 km/h 24.1 mph /  38.8 km/h 87 % 0.0 in /  0 mm
22:20 2.3 °F /  -16.5 °C 0.4 °F /  -17.6 °C 999.9 in /  33856.6 hPa West 11.1 mph /  17.9 km/h 19.3 mph /  31.1 km/h 87 % 0.0 in /  0 mm
22:26 2.2 °F /  -16.6 °C 0.3 °F /  -17.6 °C 999.9 in /  33856.6 hPa WNW 7.9 mph /  12.7 km/h 20.9 mph /  33.6 km/h 87 % 0.0 in /  0 mm
22:32 2.2 °F /  -16.6 °C 0.3 °F /  -17.6 °C 999.9 in /  33856.6 hPa WNW 16.3 mph /  26.2 km/h 24.1 mph /  38.8 km/h 87 % 0.0 in /  0 mm
22:34 2.2 °F /  -16.6 °C 0.3 °F /  -17.6 °C 1000.2 in /  33866.8 hPa WNW 20.9 mph /  33.6 km/h 22.5 mph /  36.2 km/h 87 % 0.0 in /  0 mm
22:40 2.2 °F /  -16.6 °C 0.1 °F /  -17.7 °C 1000.2 in /  33866.8 hPa WNW 14.3 mph /  23 km/h 24.1 mph /  38.8 km/h 86 % 0.0 in /  0 mm
22:46 2.2 °F /  -16.6 °C 0.3 °F /  -17.6 °C 1000.2 in /  33866.8 hPa WSW 13.0 mph /  20.9 km/h 20.9 mph /  33.6 km/h 87 % 0.0 in /  0 mm
22:52 2.1 °F /  -16.6 °C 0.2 °F /  -17.7 °C 1000.2 in /  33866.8 hPa WNW 14.3 mph /  23 km/h 29.0 mph /  46.7 km/h 87 % 0.0 in /  0 mm
22:58 2.2 °F /  -16.6 °C 0.3 °F /  -17.6 °C 1000.6 in /  33880.3 hPa West 11.1 mph /  17.9 km/h 29.0 mph /  46.7 km/h 87 % 0.0 in /  0 mm
23:04 2.2 °F /  -16.6 °C 0.3 °F /  -17.6 °C 1000.6 in /  33880.3 hPa WNW 19.5 mph /  31.4 km/h 24.1 mph /  38.8 km/h 87 % 0.0 in /  0 mm
23:10 2.2 °F /  -16.6 °C 0.3 °F /  -17.6 °C 1000.6 in /  33880.3 hPa West 17.7 mph /  28.5 km/h 29.0 mph /  46.7 km/h 87 % 0.0 in /  0 mm
23:18 2.2 °F /  -16.6 °C 0.3 °F /  -17.6 °C 1000.9 in /  33890.5 hPa WNW 25.9 mph /  41.7 km/h 25.9 mph /  41.7 km/h 87 % 0.0 in /  0 mm
23:24 2.2 °F /  -16.6 °C 0.3 °F /  -17.6 °C 1000.9 in /  33890.5 hPa West 13.0 mph /  20.9 km/h 32.2 mph /  51.8 km/h 87 % 0.0 in /  0 mm
23:26 2.2 °F /  -16.6 °C 0.3 °F /  -17.6 °C 1000.9 in /  33890.5 hPa WNW 13.0 mph /  20.9 km/h 33.8 mph /  54.4 km/h 87 % 0.0 in /  0 mm
23:32 2.3 °F /  -16.5 °C 0.2 °F /  -17.7 °C 1000.9 in /  33890.5 hPa NW 7.9 mph /  12.7 km/h 33.8 mph /  54.4 km/h 86 % 0.0 in /  0 mm
23:38 2.2 °F /  -16.6 °C 0.1 °F /  -17.7 °C 1001.2 in /  33900.6 hPa West 14.3 mph /  23 km/h 25.7 mph /  41.4 km/h 86 % 0.0 in /  0 mm
23:44 2.2 °F /  -16.6 °C 0.1 °F /  -17.7 °C 1001.2 in /  33900.6 hPa WNW 11.1 mph /  17.9 km/h 24.1 mph /  38.8 km/h 86 % 0.0 in /  0 mm
23:52 2.3 °F /  -16.5 °C 0.0 °F /  -17.8 °C 1001.2 in /  33900.6 hPa WNW 14.3 mph /  23 km/h 20.9 mph /  33.6 km/h 85 % 0.0 in /  0 mm
23:58 2.2 °F /  -16.6 °C 0.1 °F /  -17.7 °C 1001.6 in /  33914.2 hPa WNW 7.9 mph /  12.7 km/h 17.7 mph /  28.5 km/h 86 % 0.0 in /  0 mm
Meteo18
Compliments of Weather Underground - 4 mb

Script developed by  Jim McMurry - jmcmurry@mwt.net Adapted for the template by  Wim van der Kuil - Leuven-Template.eu

You find our weather info also at:

European Weather Network

Weather Underground

Equipment we use:

Weather-station
Davis Vue

Weather-program
Meteobridge

Weather-server
Raspberry PI 2 B+

Provider
1 and 1

Davis Vue

Meteobridge

Raspberry PI 2 B+

1 and 1